Mein Schiff 6 — 9HA4330 — position and weather

sailwx.info

Track history (hours):
 
Tides and Currents Weather Stations Pressure Air Temp Water Temp Dewpoint Dewpoint Depression Visibility Wind Speed Wind Dir Waves Ship Positions

Mein Schiff 6

Last reported at 2018-Jun-18 05:44 UTC. Time now 2018-Jun-19 14:28 UTC.
Position N 40°12' E 003°04'.

Length 295 m; draft 8.2 m.

Type: Passenger vessel. MMSI: 249660000.

Date/timePositionNaut miles runAvg speedWind from/ knotsBaromVisibWave heightAir tempDewpointWater temp
2018-Jun-18 05:44N 40°12' E 003°04'510.6
2018-Jun-18 05:15N 40°11' E 002°58'310.6
2018-Jun-18 05:00N 40°10' E 002°55'510.5
2018-Jun-18 04:30N 40°08' E 002°48'510.1
2018-Jun-18 04:00N 40°06' E 002°42'510.2
2018-Jun-18 03:30N 40°04' E 002°36'510.4
2018-Jun-18 03:00N 40°00' E 002°31'810.1
2018-Jun-18 02:15N 39°55' E 002°24'26 8.9
2018-Jun-17 23:19N 39°30' E 002°17'310.3
2018-Jun-17 23:00N 39°28' E 002°20'510.3
2018-Jun-17 22:29N 39°24' E 002°25'510.3
2018-Jun-17 22:00N 39°24' E 002°32'5 9.9
2018-Jun-17 21:30N 39°28' E 002°36'5 9.7
2018-Jun-17 21:00N 39°32' E 002°39'1 1.2
2018-Jun-17 20:26N 39°33' E 002°38'0 0.0
2018-Jun-17 19:59N 39°33' E 002°38'0 0.0
2018-Jun-17 19:29N 39°33' E 002°38'0 0.0
2018-Jun-17 18:59N 39°33' E 002°38'0 0.0
2018-Jun-17 18:29N 39°33' E 002°38'0 0.0
2018-Jun-17 17:59N 39°33' E 002°38'0 0.0
2018-Jun-17 17:29N 39°33' E 002°38'0 0.0
2018-Jun-17 16:59N 39°33' E 002°38'0 0.0
2018-Jun-17 16:29N 39°33' E 002°38'0 0.0
2018-Jun-17 15:59N 39°33' E 002°38'0 0.0
2018-Jun-17 15:29N 39°33' E 002°38'0 0.0
2018-Jun-17 14:59N 39°33' E 002°38'0 0.0
2018-Jun-17 14:29N 39°33' E 002°38'0 0.0
2018-Jun-17 13:59N 39°33' E 002°38'0 0.0
2018-Jun-17 13:29N 39°33' E 002°38'0 0.0
2018-Jun-17 12:59N 39°33' E 002°38'0 0.0
2018-Jun-17 12:29N 39°33' E 002°38'0 0.0
2018-Jun-17 11:59N 39°33' E 002°38'0 0.0
2018-Jun-17 11:29N 39°33' E 002°38'0 0.0
2018-Jun-17 10:59N 39°33' E 002°38'0 0.0
2018-Jun-17 10:29N 39°33' E 002°38'0 0.0
2018-Jun-17 09:59N 39°33' E 002°38'0 0.0
2018-Jun-17 09:29N 39°33' E 002°38'0 0.0
2018-Jun-17 08:59N 39°33' E 002°38'0 0.0
2018-Jun-17 08:29N 39°33' E 002°38'0 0.0
2018-Jun-17 07:59N 39°33' E 002°38'0 0.0
2018-Jun-17 07:29N 39°33' E 002°38'0 0.0
2018-Jun-17 06:56N 39°33' E 002°38'0 0.0
2018-Jun-17 06:29N 39°33' E 002°38'0 0.0
2018-Jun-17 05:59N 39°33' E 002°38'0 0.0
2018-Jun-17 05:29N 39°33' E 002°38'0 0.0
2018-Jun-17 04:59N 39°33' E 002°38'0 0.0
2018-Jun-17 04:29N 39°33' E 002°38'0 0.0
2018-Jun-17 03:59N 39°33' E 002°38'0 0.0
2018-Jun-17 03:29N 39°33' E 002°38'0 0.0
2018-Jun-17 02:59N 39°33' E 002°38'0 0.0
2018-Jun-17 02:29N 39°33' E 002°38'0 0.0
2018-Jun-17 01:59N 39°33' E 002°38'0 0.0
2018-Jun-17 01:30N 39°33' E 002°38'1 1.6
2018-Jun-17 01:00N 39°32' E 002°39'5 9.4
2018-Jun-17 00:30N 39°28' E 002°36'611.9
2018-Jun-17 00:00N 39°24' E 002°31'917.8
2018-Jun-16 23:30N 39°28' E 002°21'3116.3
2018-Jun-16 21:36N 39°58' E 002°11'217.5
2018-Jun-16 21:30N 39°59' E 002°11'917.4
2018-Jun-16 20:59N 40°08' E 002°10'3717.6
2018-Jun-16 18:53N 40°45' E 002°10'718.1
2018-Jun-16 18:30N 40°52' E 002°11'917.8
2018-Jun-16 18:00N 41°01' E 002°11'917.5
2018-Jun-16 17:30N 41°10' E 002°11'816.6
2018-Jun-16 17:00N 41°18' E 002°10'3 7.0
2018-Jun-16 16:31N 41°22' E 002°11'0 0.3
2018-Jun-16 15:58N 41°22' E 002°11'0 0.0
2018-Jun-16 15:25N 41°22' E 002°11'0 0.0
2018-Jun-16 14:58N 41°22' E 002°11'0 0.0
2018-Jun-16 14:28N 41°22' E 002°11'0 0.0
2018-Jun-16 13:58N 41°22' E 002°11'0 0.0
2018-Jun-16 13:28N 41°22' E 002°11'0 0.0
2018-Jun-16 12:58N 41°22' E 002°11'0 0.0
2018-Jun-16 12:28N 41°22' E 002°11'0 0.0
2018-Jun-16 11:58N 41°22' E 002°11'0 0.0
2018-Jun-16 11:28N 41°22' E 002°11'0 0.0
2018-Jun-16 10:58N 41°22' E 002°11'0 0.0
2018-Jun-16 10:28N 41°22' E 002°11'0 0.0
2018-Jun-16 09:58N 41°22' E 002°11'0 0.0
2018-Jun-16 09:28N 41°22' E 002°11'0 0.0
2018-Jun-16 08:55N 41°22' E 002°11'0 0.0
2018-Jun-16 08:28N 41°22' E 002°11'0 0.0
2018-Jun-16 07:58N 41°22' E 002°11'0 0.0
2018-Jun-16 07:28N 41°22' E 002°11'0 0.0
2018-Jun-16 06:58N 41°22' E 002°11'0 0.0
2018-Jun-16 06:28N 41°22' E 002°11'0 0.0
2018-Jun-16 05:55N 41°22' E 002°11'0 0.0
2018-Jun-16 05:28N 41°22' E 002°11'1 2.2
2018-Jun-16 05:00N 41°21' E 002°10'4 7.4
2018-Jun-16 04:30N 41°17' E 002°11'713.4
2018-Jun-16 04:00N 41°15' E 002°19'714.5
2018-Jun-16 03:30N 41°15' E 002°29'816.7
2018-Jun-16 03:00N 41°18' E 002°39'1818.2
2018-Jun-16 02:02N 41°28' E 002°59'118.1
2018-Jun-16 02:00N 41°28' E 002°60'918.2
2018-Jun-16 01:29N 41°34' E 003°10'11817.8
2018-Jun-15 18:51N 43°01' E 004°57'617.0
2018-Jun-15 18:30N 43°06' E 005°02'917.5
2018-Jun-15 18:00N 43°13' E 005°09'916.8
2018-Jun-15 17:29N 43°20' E 005°17'2 0.4
2018-Jun-15 11:01N 43°21' E 005°20'0 1.4
2018-Jun-15 11:01N 43°21' E 005°20'0 0.0
2018-Jun-15 10:26N 43°21' E 005°20'0 0.0
2018-Jun-15 09:59N 43°21' E 005°20'0 0.0
2018-Jun-15 09:20N 43°21' E 005°20'0 0.0
2018-Jun-15 08:50N 43°21' E 005°20'0 0.0
2018-Jun-15 08:23N 43°21' E 005°20'0 0.0
2018-Jun-15 07:50N 43°21' E 005°20'0 0.0
2018-Jun-15 07:20N 43°21' E 005°20'0 0.0
2018-Jun-15 06:59N 43°21' E 005°20'0 0.0
2018-Jun-15 06:23N 43°21' E 005°20'0 0.0
2018-Jun-15 05:59N 43°21' E 005°20'0 0.0
2018-Jun-15 05:30N 43°21' E 005°20'1 2.8
2018-Jun-15 05:00N 43°21' E 005°18'5 9.6
2018-Jun-15 04:26N 43°17' E 005°13'511.1
2018-Jun-15 04:00N 43°13' E 005°09'5411.0
2018-Jun-14 23:04N 43°10' E 003°55'16610.5
2018-Jun-14 07:14N 40°33' E 002°42'3 9.2
2018-Jun-14 06:54N 40°30' E 002°40'7 9.6
2018-Jun-14 06:08N 40°24' E 002°35'410.2
2018-Jun-14 05:45N 40°20' E 002°33'53 9.1
2018-Jun-13 23:52N 39°28' E 002°20'4 9.5
2018-Jun-13 23:30N 39°25' E 002°23'5 9.8
2018-Jun-13 23:00N 39°22' E 002°28'5 9.2
2018-Jun-13 22:30N 39°25' E 002°33'510.2
2018-Jun-13 22:00N 39°29' E 002°37'4 8.8
2018-Jun-13 21:30N 39°33' E 002°39'1 1.5
2018-Jun-13 21:00N 39°33' E 002°38'0 0.0
2018-Jun-13 20:30N 39°33' E 002°38'0 0.0
2018-Jun-13 20:00N 39°33' E 002°38'0 0.0
2018-Jun-13 19:30N 39°33' E 002°38'0 0.0
2018-Jun-13 19:00N 39°33' E 002°38'0 0.0
2018-Jun-13 18:30N 39°33' E 002°38'0 0.0
2018-Jun-13 18:00N 39°33' E 002°38'0 0.0
2018-Jun-13 17:30N 39°33' E 002°38'0 0.0
2018-Jun-13 17:00N 39°33' E 002°38'0 0.0
2018-Jun-13 16:30N 39°33' E 002°38'0 0.0
2018-Jun-13 16:00N 39°33' E 002°38'0 0.0
2018-Jun-13 15:30N 39°33' E 002°38'0 0.0
2018-Jun-13 15:00N 39°33' E 002°38'0 0.0
2018-Jun-13 14:27N 39°33' E 002°38'0 0.0
2018-Jun-13 14:00N 39°33' E 002°38'0 0.0
2018-Jun-13 13:30N 39°33' E 002°38'0 0.0
2018-Jun-13 13:00N 39°33' E 002°38'0 0.0
2018-Jun-13 12:27N 39°33' E 002°38'0 0.0
2018-Jun-13 12:00N 39°33' E 002°38'0 0.0
2018-Jun-13 11:30N 39°33' E 002°38'0 0.0
2018-Jun-13 11:00N 39°33' E 002°38'0 0.0
2018-Jun-13 10:30N 39°33' E 002°38'0 0.0
2018-Jun-13 10:00N 39°33' E 002°38'0 0.0
2018-Jun-13 09:30N 39°33' E 002°38'0 0.0
2018-Jun-13 09:00N 39°33' E 002°38'0 0.0
2018-Jun-13 08:30N 39°33' E 002°38'0 0.0
2018-Jun-13 07:57N 39°33' E 002°38'0 0.0
2018-Jun-13 07:30N 39°33' E 002°38'0 0.0
2018-Jun-13 07:00N 39°33' E 002°38'0 0.0
2018-Jun-13 06:30N 39°33' E 002°38'0 0.0
2018-Jun-13 05:57N 39°33' E 002°38'0 0.0
2018-Jun-13 05:30N 39°33' E 002°38'0 0.0
2018-Jun-13 05:00N 39°33' E 002°38'0 0.0
2018-Jun-13 04:30N 39°33' E 002°38'0 0.0
2018-Jun-13 04:00N 39°33' E 002°38'0 0.0
2018-Jun-13 03:30N 39°33' E 002°38'0 0.0
2018-Jun-13 03:00N 39°33' E 002°38'0 0.0
2018-Jun-13 02:30N 39°33' E 002°38'0 0.0
2018-Jun-13 02:00N 39°33' E 002°38'0 0.0
2018-Jun-13 01:30N 39°33' E 002°38'1 1.4
2018-Jun-13 01:00N 39°32' E 002°39'5 9.3
2018-Jun-13 00:30N 39°28' E 002°36'612.7
2018-Jun-13 00:00N 39°22' E 002°32'612.2
2018-Jun-12 23:30N 39°24' E 002°25'29 9.8
2018-Jun-12 20:32N 39°52' E 002°35'012.8
2018-Jun-12 20:30N 39°52' E 002°36'28315.0
2018-Jun-12 01:37N 42°45' E 007°33'217.9
2018-Jun-12 01:30N 42°46' E 007°35'917.9
2018-Jun-12 01:00N 42°51' E 007°45'917.6
2018-Jun-12 00:30N 42°57' E 007°55'917.1
2018-Jun-12 00:00N 43°03' E 008°02'816.6
2018-Jun-11 23:30N 43°07' E 008°12'816.8
2018-Jun-11 23:00N 43°12' E 008°21'917.3
2018-Jun-11 22:30N 43°18' E 008°31'917.4
2018-Jun-11 22:00N 43°23' E 008°40'917.3
2018-Jun-11 21:30N 43°28' E 008°49'816.7
2018-Jun-11 21:00N 43°33' E 008°59'816.2
2018-Jun-11 20:30N 43°38' E 009°08'816.5
2018-Jun-11 20:00N 43°42' E 009°18'816.2
2018-Jun-11 19:30N 43°44' E 009°29'916.8
2018-Jun-11 19:00N 43°48' E 009°39'816.7
2018-Jun-11 18:30N 43°55' E 009°45'815.2
2018-Jun-11 18:00N 44°00' E 009°52'610.6
2018-Jun-11 17:29N 44°06' E 009°51'1 1.4
2018-Jun-11 17:00N 44°07' E 009°50'0 0.0
2018-Jun-11 16:30N 44°07' E 009°50'0 0.0
2018-Jun-11 16:00N 44°07' E 009°50'0 0.0
2018-Jun-11 15:30N 44°07' E 009°50'0 0.0
2018-Jun-11 15:00N 44°07' E 009°50'0 0.0
2018-Jun-11 14:30N 44°07' E 009°50'0 0.0
2018-Jun-11 14:00N 44°07' E 009°50'0 0.0
2018-Jun-11 13:30N 44°07' E 009°50'0 0.0
2018-Jun-11 13:00N 44°07' E 009°50'0 0.0
2018-Jun-11 12:30N 44°07' E 009°50'0 0.0
2018-Jun-11 12:00N 44°07' E 009°50'0 0.0
2018-Jun-11 11:30N 44°07' E 009°50'0 0.0
2018-Jun-11 11:00N 44°07' E 009°50'0 0.0
2018-Jun-11 10:27N 44°07' E 009°50'0 0.0
2018-Jun-11 10:00N 44°07' E 009°50'0 0.0
2018-Jun-11 09:30N 44°07' E 009°50'0 0.0
2018-Jun-11 09:00N 44°07' E 009°50'0 0.0
2018-Jun-11 08:30N 44°07' E 009°50'0 0.0
2018-Jun-11 08:00N 44°07' E 009°50'0 0.0
2018-Jun-11 07:30N 44°07' E 009°50'0 0.0
2018-Jun-11 07:00N 44°07' E 009°50'0 0.0
2018-Jun-11 06:30N 44°07' E 009°50'0 0.0
2018-Jun-11 06:00N 44°07' E 009°50'0 0.0
2018-Jun-11 05:27N 44°07' E 009°50'0 0.1
2018-Jun-11 05:01N 44°06' E 009°50'3 5.4
2018-Jun-11 04:31N 44°04' E 009°51'713.4
2018-Jun-11 04:00N 43°59' E 009°57'918.5
2018-Jun-11 03:31N 43°50' E 009°51'1019.3
2018-Jun-11 03:00N 43°42' E 009°44'1019.3
2018-Jun-11 02:31N 43°34' E 009°38'1019.2
2018-Jun-11 02:01N 43°24' E 009°35'1019.3
2018-Jun-11 01:31N 43°15' E 009°34'1019.3
2018-Jun-11 01:01N 43°05' E 009°37'1019.5
2018-Jun-11 00:31N 42°56' E 009°41'1018.8
2018-Jun-10 23:58N 42°49' E 009°51'919.7
2018-Jun-10 23:30N 42°44' E 010°01'1419.0
2018-Jun-10 22:46N 42°35' E 010°16'519.1
2018-Jun-10 22:30N 42°32' E 010°22'1719.1
2018-Jun-10 21:36N 42°21' E 010°39'218.7
2018-Jun-10 21:30N 42°20' E 010°41'918.8
2018-Jun-10 21:00N 42°15' E 010°52'1018.6
2018-Jun-10 20:28N 42°09' E 011°03'110 4.4
2018-Jun-09 19:17N 41°24' E 008°48'  
Track history (hours):
 
Tides and Currents Weather Stations Pressure Air Temp Water Temp Dewpoint Dewpoint Depression Visibility Wind Speed Wind Dir Waves Ship Positions

Mein Schiff 6

Last reported at 2018-Jun-18 05:44 UTC. Time now 2018-Jun-19 14:28 UTC.
Position N 40°12' E 003°04'.

Length 295 m; draft 8.2 m.

Type: Passenger vessel. MMSI: 249660000.

Date/timePositionNaut miles runAvg speedWind from/ knotsBaromVisibWave heightAir tempDewpointWater temp
2018-Jun-18 05:44N 40°12' E 003°04'510.6
2018-Jun-18 05:15N 40°11' E 002°58'310.6
2018-Jun-18 05:00N 40°10' E 002°55'510.5
2018-Jun-18 04:30N 40°08' E 002°48'510.1
2018-Jun-18 04:00N 40°06' E 002°42'510.2
2018-Jun-18 03:30N 40°04' E 002°36'510.4
2018-Jun-18 03:00N 40°00' E 002°31'810.1
2018-Jun-18 02:15N 39°55' E 002°24'26 8.9
2018-Jun-17 23:19N 39°30' E 002°17'310.3
2018-Jun-17 23:00N 39°28' E 002°20'510.3
2018-Jun-17 22:29N 39°24' E 002°25'510.3
2018-Jun-17 22:00N 39°24' E 002°32'5 9.9
2018-Jun-17 21:30N 39°28' E 002°36'5 9.7
2018-Jun-17 21:00N 39°32' E 002°39'1 1.2
2018-Jun-17 20:26N 39°33' E 002°38'0 0.0
2018-Jun-17 19:59N 39°33' E 002°38'0 0.0
2018-Jun-17 19:29N 39°33' E 002°38'0 0.0
2018-Jun-17 18:59N 39°33' E 002°38'0 0.0
2018-Jun-17 18:29N 39°33' E 002°38'0 0.0
2018-Jun-17 17:59N 39°33' E 002°38'0 0.0
2018-Jun-17 17:29N 39°33' E 002°38'0 0.0
2018-Jun-17 16:59N 39°33' E 002°38'0 0.0
2018-Jun-17 16:29N 39°33' E 002°38'0 0.0
2018-Jun-17 15:59N 39°33' E 002°38'0 0.0
2018-Jun-17 15:29N 39°33' E 002°38'0 0.0
2018-Jun-17 14:59N 39°33' E 002°38'0 0.0
2018-Jun-17 14:29N 39°33' E 002°38'0 0.0
2018-Jun-17 13:59N 39°33' E 002°38'0 0.0
2018-Jun-17 13:29N 39°33' E 002°38'0 0.0
2018-Jun-17 12:59N 39°33' E 002°38'0 0.0
2018-Jun-17 12:29N 39°33' E 002°38'0 0.0
2018-Jun-17 11:59N 39°33' E 002°38'0 0.0
2018-Jun-17 11:29N 39°33' E 002°38'0 0.0
2018-Jun-17 10:59N 39°33' E 002°38'0 0.0
2018-Jun-17 10:29N 39°33' E 002°38'0 0.0
2018-Jun-17 09:59N 39°33' E 002°38'0 0.0
2018-Jun-17 09:29N 39°33' E 002°38'0 0.0
2018-Jun-17 08:59N 39°33' E 002°38'0 0.0
2018-Jun-17 08:29N 39°33' E 002°38'0 0.0
2018-Jun-17 07:59N 39°33' E 002°38'0 0.0
2018-Jun-17 07:29N 39°33' E 002°38'0 0.0
2018-Jun-17 06:56N 39°33' E 002°38'0 0.0
2018-Jun-17 06:29N 39°33' E 002°38'0 0.0
2018-Jun-17 05:59N 39°33' E 002°38'0 0.0
2018-Jun-17 05:29N 39°33' E 002°38'0 0.0
2018-Jun-17 04:59N 39°33' E 002°38'0 0.0
2018-Jun-17 04:29N 39°33' E 002°38'0 0.0
2018-Jun-17 03:59N 39°33' E 002°38'0 0.0
2018-Jun-17 03:29N 39°33' E 002°38'0 0.0
2018-Jun-17 02:59N 39°33' E 002°38'0 0.0
2018-Jun-17 02:29N 39°33' E 002°38'0 0.0
2018-Jun-17 01:59N 39°33' E 002°38'0 0.0
2018-Jun-17 01:30N 39°33' E 002°38'1 1.6
2018-Jun-17 01:00N 39°32' E 002°39'5 9.4
2018-Jun-17 00:30N 39°28' E 002°36'611.9
2018-Jun-17 00:00N 39°24' E 002°31'917.8
2018-Jun-16 23:30N 39°28' E 002°21'3116.3
2018-Jun-16 21:36N 39°58' E 002°11'217.5
2018-Jun-16 21:30N 39°59' E 002°11'917.4
2018-Jun-16 20:59N 40°08' E 002°10'3717.6
2018-Jun-16 18:53N 40°45' E 002°10'718.1
2018-Jun-16 18:30N 40°52' E 002°11'917.8
2018-Jun-16 18:00N 41°01' E 002°11'917.5
2018-Jun-16 17:30N 41°10' E 002°11'816.6
2018-Jun-16 17:00N 41°18' E 002°10'3 7.0
2018-Jun-16 16:31N 41°22' E 002°11'0 0.3
2018-Jun-16 15:58N 41°22' E 002°11'0 0.0
2018-Jun-16 15:25N 41°22' E 002°11'0 0.0
2018-Jun-16 14:58N 41°22' E 002°11'0 0.0
2018-Jun-16 14:28N 41°22' E 002°11'0 0.0
2018-Jun-16 13:58N 41°22' E 002°11'0 0.0
2018-Jun-16 13:28N 41°22' E 002°11'0 0.0
2018-Jun-16 12:58N 41°22' E 002°11'0 0.0
2018-Jun-16 12:28N 41°22' E 002°11'0 0.0
2018-Jun-16 11:58N 41°22' E 002°11'0 0.0
2018-Jun-16 11:28N 41°22' E 002°11'0 0.0
2018-Jun-16 10:58N 41°22' E 002°11'0 0.0
2018-Jun-16 10:28N 41°22' E 002°11'0 0.0
2018-Jun-16 09:58N 41°22' E 002°11'0 0.0
2018-Jun-16 09:28N 41°22' E 002°11'0 0.0
2018-Jun-16 08:55N 41°22' E 002°11'0 0.0
2018-Jun-16 08:28N 41°22' E 002°11'0 0.0
2018-Jun-16 07:58N 41°22' E 002°11'0 0.0
2018-Jun-16 07:28N 41°22' E 002°11'0 0.0
2018-Jun-16 06:58N 41°22' E 002°11'0 0.0
2018-Jun-16 06:28N 41°22' E 002°11'0 0.0
2018-Jun-16 05:55N 41°22' E 002°11'0 0.0
2018-Jun-16 05:28N 41°22' E 002°11'1 2.2
2018-Jun-16 05:00N 41°21' E 002°10'4 7.4
2018-Jun-16 04:30N 41°17' E 002°11'713.4
2018-Jun-16 04:00N 41°15' E 002°19'714.5
2018-Jun-16 03:30N 41°15' E 002°29'816.7
2018-Jun-16 03:00N 41°18' E 002°39'1818.2
2018-Jun-16 02:02N 41°28' E 002°59'118.1
2018-Jun-16 02:00N 41°28' E 002°60'918.2
2018-Jun-16 01:29N 41°34' E 003°10'11817.8
2018-Jun-15 18:51N 43°01' E 004°57'617.0
2018-Jun-15 18:30N 43°06' E 005°02'917.5
2018-Jun-15 18:00N 43°13' E 005°09'916.8
2018-Jun-15 17:29N 43°20' E 005°17'2 0.4
2018-Jun-15 11:01N 43°21' E 005°20'0 1.4
2018-Jun-15 11:01N 43°21' E 005°20'0 0.0
2018-Jun-15 10:26N 43°21' E 005°20'0 0.0
2018-Jun-15 09:59N 43°21' E 005°20'0 0.0
2018-Jun-15 09:20N 43°21' E 005°20'0 0.0
2018-Jun-15 08:50N 43°21' E 005°20'0 0.0
2018-Jun-15 08:23N 43°21' E 005°20'0 0.0
2018-Jun-15 07:50N 43°21' E 005°20'0 0.0
2018-Jun-15 07:20N 43°21' E 005°20'0 0.0
2018-Jun-15 06:59N 43°21' E 005°20'0 0.0
2018-Jun-15 06:23N 43°21' E 005°20'0 0.0
2018-Jun-15 05:59N 43°21' E 005°20'0 0.0
2018-Jun-15 05:30N 43°21' E 005°20'1 2.8
2018-Jun-15 05:00N 43°21' E 005°18'5 9.6
2018-Jun-15 04:26N 43°17' E 005°13'511.1
2018-Jun-15 04:00N 43°13' E 005°09'5411.0
2018-Jun-14 23:04N 43°10' E 003°55'16610.5
2018-Jun-14 07:14N 40°33' E 002°42'3 9.2
2018-Jun-14 06:54N 40°30' E 002°40'7 9.6
2018-Jun-14 06:08N 40°24' E 002°35'410.2
2018-Jun-14 05:45N 40°20' E 002°33'53 9.1
2018-Jun-13 23:52N 39°28' E 002°20'4 9.5
2018-Jun-13 23:30N 39°25' E 002°23'5 9.8
2018-Jun-13 23:00N 39°22' E 002°28'5 9.2
2018-Jun-13 22:30N 39°25' E 002°33'510.2
2018-Jun-13 22:00N 39°29' E 002°37'4 8.8
2018-Jun-13 21:30N 39°33' E 002°39'1 1.5
2018-Jun-13 21:00N 39°33' E 002°38'0 0.0
2018-Jun-13 20:30N 39°33' E 002°38'0 0.0
2018-Jun-13 20:00N 39°33' E 002°38'0 0.0
2018-Jun-13 19:30N 39°33' E 002°38'0 0.0
2018-Jun-13 19:00N 39°33' E 002°38'0 0.0
2018-Jun-13 18:30N 39°33' E 002°38'0 0.0
2018-Jun-13 18:00N 39°33' E 002°38'0 0.0
2018-Jun-13 17:30N 39°33' E 002°38'0 0.0
2018-Jun-13 17:00N 39°33' E 002°38'0 0.0
2018-Jun-13 16:30N 39°33' E 002°38'0 0.0
2018-Jun-13 16:00N 39°33' E 002°38'0 0.0
2018-Jun-13 15:30N 39°33' E 002°38'0 0.0
2018-Jun-13 15:00N 39°33' E 002°38'0 0.0
2018-Jun-13 14:27N 39°33' E 002°38'0 0.0
2018-Jun-13 14:00N 39°33' E 002°38'0 0.0
2018-Jun-13 13:30N 39°33' E 002°38'0 0.0
2018-Jun-13 13:00N 39°33' E 002°38'0 0.0
2018-Jun-13 12:27N 39°33' E 002°38'0 0.0
2018-Jun-13 12:00N 39°33' E 002°38'0 0.0
2018-Jun-13 11:30N 39°33' E 002°38'0 0.0
2018-Jun-13 11:00N 39°33' E 002°38'0 0.0
2018-Jun-13 10:30N 39°33' E 002°38'0 0.0
2018-Jun-13 10:00N 39°33' E 002°38'0 0.0
2018-Jun-13 09:30N 39°33' E 002°38'0 0.0
2018-Jun-13 09:00N 39°33' E 002°38'0 0.0
2018-Jun-13 08:30N 39°33' E 002°38'0 0.0
2018-Jun-13 07:57N 39°33' E 002°38'0 0.0
2018-Jun-13 07:30N 39°33' E 002°38'0 0.0
2018-Jun-13 07:00N 39°33' E 002°38'0 0.0
2018-Jun-13 06:30N 39°33' E 002°38'0 0.0
2018-Jun-13 05:57N 39°33' E 002°38'0 0.0
2018-Jun-13 05:30N 39°33' E 002°38'0 0.0
2018-Jun-13 05:00N 39°33' E 002°38'0 0.0
2018-Jun-13 04:30N 39°33' E 002°38'0 0.0
2018-Jun-13 04:00N 39°33' E 002°38'0 0.0
2018-Jun-13 03:30N 39°33' E 002°38'0 0.0
2018-Jun-13 03:00N 39°33' E 002°38'0 0.0
2018-Jun-13 02:30N 39°33' E 002°38'0 0.0
2018-Jun-13 02:00N 39°33' E 002°38'0 0.0
2018-Jun-13 01:30N 39°33' E 002°38'1 1.4
2018-Jun-13 01:00N 39°32' E 002°39'5 9.3
2018-Jun-13 00:30N 39°28' E 002°36'612.7
2018-Jun-13 00:00N 39°22' E 002°32'612.2
2018-Jun-12 23:30N 39°24' E 002°25'29 9.8
2018-Jun-12 20:32N 39°52' E 002°35'012.8
2018-Jun-12 20:30N 39°52' E 002°36'28315.0
2018-Jun-12 01:37N 42°45' E 007°33'217.9
2018-Jun-12 01:30N 42°46' E 007°35'917.9
2018-Jun-12 01:00N 42°51' E 007°45'917.6
2018-Jun-12 00:30N 42°57' E 007°55'917.1
2018-Jun-12 00:00N 43°03' E 008°02'816.6
2018-Jun-11 23:30N 43°07' E 008°12'816.8
2018-Jun-11 23:00N 43°12' E 008°21'917.3
2018-Jun-11 22:30N 43°18' E 008°31'917.4
2018-Jun-11 22:00N 43°23' E 008°40'917.3
2018-Jun-11 21:30N 43°28' E 008°49'816.7
2018-Jun-11 21:00N 43°33' E 008°59'816.2
2018-Jun-11 20:30N 43°38' E 009°08'816.5
2018-Jun-11 20:00N 43°42' E 009°18'816.2
2018-Jun-11 19:30N 43°44' E 009°29'916.8
2018-Jun-11 19:00N 43°48' E 009°39'816.7
2018-Jun-11 18:30N 43°55' E 009°45'815.2
2018-Jun-11 18:00N 44°00' E 009°52'610.6
2018-Jun-11 17:29N 44°06' E 009°51'1 1.4
2018-Jun-11 17:00N 44°07' E 009°50'0 0.0
2018-Jun-11 16:30N 44°07' E 009°50'0 0.0
2018-Jun-11 16:00N 44°07' E 009°50'0 0.0
2018-Jun-11 15:30N 44°07' E 009°50'0 0.0
2018-Jun-11 15:00N 44°07' E 009°50'0 0.0
2018-Jun-11 14:30N 44°07' E 009°50'0 0.0
2018-Jun-11 14:00N 44°07' E 009°50'0 0.0
2018-Jun-11 13:30N 44°07' E 009°50'0 0.0
2018-Jun-11 13:00N 44°07' E 009°50'0 0.0
2018-Jun-11 12:30N 44°07' E 009°50'0 0.0
2018-Jun-11 12:00N 44°07' E 009°50'0 0.0
2018-Jun-11 11:30N 44°07' E 009°50'0 0.0
2018-Jun-11 11:00N 44°07' E 009°50'0 0.0
2018-Jun-11 10:27N 44°07' E 009°50'0 0.0
2018-Jun-11 10:00N 44°07' E 009°50'0 0.0
2018-Jun-11 09:30N 44°07' E 009°50'0 0.0
2018-Jun-11 09:00N 44°07' E 009°50'0 0.0
2018-Jun-11 08:30N 44°07' E 009°50'0 0.0
2018-Jun-11 08:00N 44°07' E 009°50'0 0.0
2018-Jun-11 07:30N 44°07' E 009°50'0 0.0
2018-Jun-11 07:00N 44°07' E 009°50'0 0.0
2018-Jun-11 06:30N 44°07' E 009°50'0 0.0
2018-Jun-11 06:00N 44°07' E 009°50'0 0.0
2018-Jun-11 05:27N 44°07' E 009°50'0 0.1
2018-Jun-11 05:01N 44°06' E 009°50'3 5.4
2018-Jun-11 04:31N 44°04' E 009°51'713.4
2018-Jun-11 04:00N 43°59' E 009°57'918.5
2018-Jun-11 03:31N 43°50' E 009°51'1019.3
2018-Jun-11 03:00N 43°42' E 009°44'1019.3
2018-Jun-11 02:31N 43°34' E 009°38'1019.2
2018-Jun-11 02:01N 43°24' E 009°35'1019.3
2018-Jun-11 01:31N 43°15' E 009°34'1019.3
2018-Jun-11 01:01N 43°05' E 009°37'1019.5
2018-Jun-11 00:31N 42°56' E 009°41'1018.8
2018-Jun-10 23:58N 42°49' E 009°51'919.7
2018-Jun-10 23:30N 42°44' E 010°01'1419.0
2018-Jun-10 22:46N 42°35' E 010°16'519.1
2018-Jun-10 22:30N 42°32' E 010°22'1719.1
2018-Jun-10 21:36N 42°21' E 010°39'218.7
2018-Jun-10 21:30N 42°20' E 010°41'918.8
2018-Jun-10 21:00N 42°15' E 010°52'1018.6
2018-Jun-10 20:28N 42°09' E 011°03'110 4.4
2018-Jun-09 19:17N 41°24' E 008°48'  

Dump ship's entire track history